Time;durP1;ratioP1;P1;durP2;ratioP2;P2;SDS_P1;SDS_P2;PMS_P1;PMS_P2;Temp;Humidity;BMP_temperature;BMP_pressure;BME280_temperature;BME280_humidity;BME280_pressure;Samples;Min_cycle;Max_cycle;Signal;HPM_P1;HPM_P2
2021/04/28 00:00:24;;;;;;;;;;;3.30;93.90;;;;;;5123404;27;20398;-50
2021/04/28 00:02:51;;;;;;;16.13;6.03;;;3.30;94.20;;;;;;5123383;27;20406;-53
2021/04/28 00:05:17;;;;;;;10.35;6.35;;;3.30;94.30;;;;;;5123230;27;20043;-48
2021/04/28 00:07:43;;;;;;;11.35;6.40;;;3.30;94.30;;;;;;5125033;28;20035;-51
2021/04/28 00:10:11;;;;;;;9.77;6.40;;;3.30;94.70;;;;;;5123226;27;20042;-48
2021/04/28 00:12:37;;;;;;;10.43;6.65;;;3.30;94.40;;;;;;5121928;28;20144;-49
2021/04/28 00:15:09;;;;;;;13.23;6.03;;;3.20;94.20;;;;;;5114700;27;20032;-50
2021/04/28 00:17:35;;;;;;;17.30;6.78;;;3.30;94.50;;;;;;5108908;28;20038;-50
2021/04/28 00:20:01;;;;;;;10.80;6.18;;;3.30;94.80;;;;;;5109947;28;20032;-51
2021/04/28 00:22:26;;;;;;;12.25;6.78;;;3.30;94.60;;;;;;5109127;28;20126;-49
2021/04/28 00:24:52;;;;;;;12.20;6.05;;;3.20;94.20;;;;;;5108821;28;20039;-55
2021/04/28 00:27:17;;;;;;;;;;;3.20;94.40;;;;;;5109806;28;20038;-50
2021/04/28 00:29:43;;;;;;;13.30;6.70;;;3.10;95.10;;;;;;5109310;28;20321;-52
2021/04/28 00:32:08;;;;;;;11.98;6.63;;;3.10;95.20;;;;;;5108939;28;20039;-54
2021/04/28 00:34:34;;;;;;;;;;;3.10;95.30;;;;;;5108963;28;20033;-48
2021/04/28 00:36:59;;;;;;;9.75;5.90;;;3.00;95.00;;;;;;5109485;28;19916;-55
2021/04/28 00:39:25;;;;;;;15.95;7.63;;;3.00;94.90;;;;;;5106709;28;20093;-55
2021/04/28 00:41:51;;;;;;;;;;;3.00;95.40;;;;;;5108727;28;20495;-52
2021/04/28 00:44:16;;;;;;;10.60;6.07;;;3.00;95.50;;;;;;5109494;28;19943;-53
2021/04/28 00:46:42;;;;;;;;;;;2.90;95.90;;;;;;5108936;28;20111;-48
2021/04/28 00:49:08;;;;;;;15.15;6.78;;;2.90;95.20;;;;;;5109403;27;19920;-51
2021/04/28 00:51:33;;;;;;;17.08;7.18;;;2.90;95.20;;;;;;5108282;28;20135;-51
2021/04/28 00:53:59;;;;;;;;;;;2.80;95.10;;;;;;5109195;28;20108;-49
2021/04/28 00:56:25;;;;;;;12.15;6.43;;;2.70;95.40;;;;;;5109559;28;20327;-50
2021/04/28 00:58:51;;;;;;;12.43;6.13;;;2.70;95.50;;;;;;5108806;28;20588;-51
2021/04/28 01:01:16;;;;;;;17.92;6.90;;;2.60;95.60;;;;;;5108228;28;20063;-53
2021/04/28 01:03:47;;;;;;;12.52;6.75;;;2.60;95.90;;;;;;5108829;28;20522;-54
2021/04/28 01:06:13;;;;;;;12.73;6.53;;;2.60;96.20;;;;;;5105592;28;20061;-53
2021/04/28 01:08:41;;;;;;;12.75;6.80;;;2.60;96.20;;;;;;5108521;28;20035;-54
2021/04/28 01:11:06;;;;;;;14.35;6.93;;;2.50;96.00;;;;;;5108872;28;20069;-50
2021/04/28 01:13:33;;;;;;;11.43;6.68;;;2.40;96.20;;;;;;5108705;28;20384;-53
2021/04/28 01:15:59;;;;;;;11.65;6.10;;;2.40;96.60;;;;;;5107114;28;20090;-49
2021/04/28 01:18:25;;;;;;;11.25;6.55;;;2.40;96.50;;;;;;5108666;28;20698;-52
2021/04/28 01:20:50;;;;;;;;;;;2.40;96.80;;;;;;5108770;28;20079;-52
2021/04/28 01:23:16;;;;;;;9.57;5.97;;;2.40;96.90;;;;;;5107713;28;20302;-50
2021/04/28 01:25:43;;;;;;;16.30;6.65;;;2.40;96.70;;;;;;5107482;28;20556;-50
2021/04/28 01:28:23;;;;;;;14.15;6.47;;;2.40;96.60;;;;;;5108372;28;20067;-51
2021/04/28 01:31:00;;;;;;;12.48;6.75;;;2.40;96.90;;;;;;5107698;28;20521;-53
2021/04/28 01:33:31;;;;;;;12.80;6.95;;;2.40;96.40;;;;;;5107648;28;20100;-49
2021/04/28 01:35:58;;;;;;;11.20;6.43;;;2.20;96.20;;;;;;5107630;28;20071;-55
2021/04/28 01:38:27;;;;;;;11.90;6.88;;;2.20;96.70;;;;;;5107878;28;20031;-54
2021/04/28 01:40:54;;;;;;;13.15;5.82;;;2.30;96.70;;;;;;5095718;28;20040;-49
2021/04/28 01:43:21;;;;;;;9.38;5.85;;;2.30;96.60;;;;;;5088126;28;20123;-51
2021/04/28 01:45:52;;;;;;;11.55;6.18;;;2.20;96.80;;;;;;5098325;28;20533;-52
2021/04/28 01:48:18;;;;;;;13.73;5.72;;;2.30;97.40;;;;;;5107775;28;20040;-51
2021/04/28 01:50:45;;;;;;;10.48;5.93;;;2.30;97.10;;;;;;5108076;28;20126;-50
2021/04/28 01:53:15;;;;;;;9.82;5.75;;;2.30;97.20;;;;;;5107425;28;20760;-52
2021/04/28 01:55:41;;;;;;;14.52;6.57;;;2.30;97.30;;;;;;5107375;28;20043;-55
2021/04/28 01:58:07;;;;;;;12.60;6.05;;;2.30;96.90;;;;;;5108174;28;20043;-50
2021/04/28 02:00:33;;;;;;;;;;;2.20;96.90;;;;;;5108181;28;20110;-54
2021/04/28 02:03:00;;;;;;;9.77;6.05;;;2.20;97.20;;;;;;5110048;28;19920;-49
2021/04/28 02:05:26;;;;;;;11.75;6.90;;;2.20;96.90;;;;;;5108971;28;20043;-52
2021/04/28 02:07:51;;;;;;;11.25;6.53;;;2.20;96.80;;;;;;5108625;28;20036;-51
2021/04/28 02:10:17;;;;;;;9.30;5.80;;;2.20;97.10;;;;;;5107941;28;20039;-54
2021/04/28 02:12:46;;;;;;;9.73;6.40;;;2.20;96.80;;;;;;5108170;28;20047;-53
2021/04/28 02:15:14;;;;;;;9.43;6.38;;;2.10;97.00;;;;;;5107114;28;20745;-52
2021/04/28 02:17:41;;;;;;;11.55;6.93;;;2.10;97.40;;;;;;5107416;28;20043;-52
2021/04/28 02:20:09;;;;;;;14.23;6.55;;;2.10;97.50;;;;;;5107431;28;20044;-50
2021/04/28 02:22:37;;;;;;;9.65;5.97;;;2.10;97.30;;;;;;5107538;28;20040;-57
2021/04/28 02:25:04;;;;;;;13.35;5.78;;;2.10;97.40;;;;;;5107977;28;20039;-56
2021/04/28 02:27:29;;;;;;;15.77;6.30;;;2.10;96.90;;;;;;5108251;28;20039;-51
2021/04/28 02:29:57;;;;;;;12.43;6.22;;;2.10;96.90;;;;;;5107814;28;20035;-56
2021/04/28 02:32:22;;;;;;;12.73;6.45;;;2.10;97.10;;;;;;5104907;28;20086;-55
2021/04/28 02:34:48;;;;;;;9.73;6.20;;;1.90;97.10;;;;;;5107015;28;20071;-53
2021/04/28 02:37:19;;;;;;;9.48;5.55;;;1.90;97.40;;;;;;5106638;28;20112;-56
2021/04/28 02:39:54;;;;;;;12.70;6.40;;;1.90;97.90;;;;;;5106073;28;20741;-53
2021/04/28 02:42:20;;;;;;;16.20;6.65;;;1.90;97.70;;;;;;5087226;28;20495;-51
2021/04/28 02:44:47;;;;;;;22.15;5.65;;;1.90;97.70;;;;;;5090252;28;20537;-53
2021/04/28 02:47:14;;;;;;;13.63;5.95;;;1.80;97.90;;;;;;5106445;28;20507;-55
2021/04/28 02:49:41;;;;;;;12.70;6.50;;;1.80;98.10;;;;;;5107114;28;20075;-54
2021/04/28 02:52:07;;;;;;;7.93;5.28;;;1.90;98.10;;;;;;5107672;28;20043;-53
2021/04/28 02:54:36;;;;;;;11.52;6.43;;;1.90;98.10;;;;;;5107207;28;20134;-56
2021/04/28 02:57:02;;;;;;;9.32;5.68;;;2.00;97.70;;;;;;5107506;28;20082;-49
2021/04/28 02:59:31;;;;;;;12.00;6.53;;;2.00;97.80;;;;;;5107199;28;20075;-53
2021/04/28 03:01:56;;;;;;;11.48;5.35;;;2.00;97.70;;;;;;5106553;28;20496;-56
2021/04/28 03:04:22;;;;;;;9.27;5.95;;;1.90;97.60;;;;;;5106969;28;20046;-50
2021/04/28 03:06:48;;;;;;;11.32;6.47;;;1.90;97.90;;;;;;5106979;28;20044;-52
2021/04/28 03:09:14;;;;;;;10.65;6.05;;;1.90;98.10;;;;;;5103522;28;20036;-53
2021/04/28 03:11:44;;;;;;;13.43;6.18;;;1.90;97.80;;;;;;5106879;28;20035;-55
2021/04/28 03:14:10;;;;;;;11.48;6.38;;;1.80;97.70;;;;;;5107174;28;20122;-54
2021/04/28 03:16:36;;;;;;;14.15;7.22;;;1.80;97.60;;;;;;5105794;28;20065;-55
2021/04/28 03:19:04;;;;;;;15.70;6.47;;;1.90;98.10;;;;;;5107193;28;20043;-57
2021/04/28 03:21:35;;;;;;;10.45;6.25;;;1.80;98.10;;;;;;5107653;28;20082;-55
2021/04/28 03:24:01;;;;;;;10.10;6.10;;;1.80;97.70;;;;;;5105792;28;20055;-53
2021/04/28 03:26:28;;;;;;;9.20;5.95;;;1.70;97.70;;;;;;5107055;28;20093;-55
2021/04/28 03:28:55;;;;;;;11.65;6.65;;;1.70;98.00;;;;;;5106702;28;20036;-54
2021/04/28 03:31:21;;;;;;;10.93;6.57;;;1.70;97.70;;;;;;5105326;28;20118;-53
2021/04/28 03:33:47;;;;;;;9.98;6.07;;;1.60;98.20;;;;;;5106744;28;20122;-55
2021/04/28 03:36:12;;;;;;;8.43;5.88;;;1.60;98.60;;;;;;5106563;28;20050;-56
2021/04/28 03:38:38;;;;;;;10.40;6.53;;;1.60;98.60;;;;;;5106520;28;20042;-56
2021/04/28 03:41:04;;;;;;;10.48;6.05;;;1.60;98.70;;;;;;5105688;28;20031;-55
2021/04/28 03:43:29;;;;;;;10.63;6.05;;;1.60;98.40;;;;;;5106748;28;20036;-55
2021/04/28 03:45:55;;;;;;;10.57;6.65;;;1.60;98.60;;;;;;5105814;28;20028;-53
2021/04/28 03:48:21;;;;;;;11.48;6.68;;;1.60;98.60;;;;;;5106535;28;20123;-54
2021/04/28 03:50:46;;;;;;;16.65;6.70;;;1.50;98.90;;;;;;5109548;28;20040;-54
2021/04/28 03:53:12;;;;;;;11.57;6.85;;;1.50;99.20;;;;;;5110024;28;20047;-55
2021/04/28 03:55:38;;;;;;;10.60;5.75;;;1.60;99.20;;;;;;5110198;28;20067;-52
2021/04/28 03:58:03;;;;;;;12.32;6.38;;;1.50;99.20;;;;;;5109858;28;20042;-48
2021/04/28 04:00:29;;;;;;;11.93;5.65;;;1.50;99.10;;;;;;5109807;28;20039;-57
2021/04/28 04:02:55;;;;;;;10.40;6.20;;;1.60;99.00;;;;;;5110195;28;20047;-54
2021/04/28 04:05:21;;;;;;;11.48;6.18;;;1.60;99.00;;;;;;5109775;28;20097;-51
2021/04/28 04:07:46;;;;;;;13.30;5.93;;;1.60;99.10;;;;;;5110344;28;20557;-54
2021/04/28 04:10:13;;;;;;;12.70;6.18;;;1.60;99.20;;;;;;5109866;28;20786;-56
2021/04/28 04:12:39;;;;;;;8.70;5.63;;;1.60;99.30;;;;;;5110077;28;20078;-52
2021/04/28 04:15:06;;;;;;;8.93;5.65;;;1.60;99.40;;;;;;5109431;28;20162;-52
2021/04/28 04:17:32;;;;;;;10.15;6.30;;;1.60;99.20;;;;;;5108946;28;20043;-52
2021/04/28 04:19:59;;;;;;;13.15;6.07;;;1.60;99.10;;;;;;5110033;28;20042;-54
2021/04/28 04:22:24;;;;;;;10.52;5.85;;;1.60;99.20;;;;;;5109477;28;20043;-53
2021/04/28 04:24:50;;;;;;;12.90;6.20;;;1.60;99.70;;;;;;5109097;28;20092;-50
2021/04/28 04:27:17;;;;;;;13.02;5.85;;;1.70;99.60;;;;;;5109814;28;20062;-55
2021/04/28 04:29:42;;;;;;;11.10;5.97;;;1.70;99.60;;;;;;5108866;28;20138;-52
2021/04/28 04:32:09;;;;;;;10.50;6.28;;;1.70;99.90;;;;;;5109106;28;20206;-53
2021/04/28 04:34:36;;;;;;;10.45;5.70;;;1.70;99.70;;;;;;5110248;28;20039;-53
2021/04/28 04:37:03;;;;;;;12.02;5.60;;;1.80;99.90;;;;;;5110058;28;20157;-51
2021/04/28 04:39:29;;;;;;;11.98;5.88;;;1.90;99.30;;;;;;5109130;27;20051;-52
2021/04/28 04:41:54;;;;;;;12.45;5.93;;;2.00;98.70;;;;;;5104905;28;20027;-54
2021/04/28 04:44:20;;;;;;;15.68;6.55;;;2.40;97.90;;;;;;5109193;28;20724;-51
2021/04/28 04:46:45;;;;;;;;;;;2.70;97.10;;;;;;5108881;28;20043;-50
2021/04/28 04:49:11;;;;;;;9.23;5.30;;;2.80;96.90;;;;;;5109453;28;20402;-52
2021/04/28 04:51:36;;;;;;;12.10;5.53;;;2.70;97.30;;;;;;5109115;28;20039;-49
2021/04/28 04:54:02;;;;;;;;;;;2.80;97.00;;;;;;5108745;28;20051;-50
2021/04/28 04:56:27;;;;;;;11.23;5.75;;;3.20;96.90;;;;;;5108949;28;20163;-49
2021/04/28 04:58:53;;;;;;;;;;;4.40;94.50;;;;;;5109417;28;20122;-50
2021/04/28 05:01:19;;;;;;;11.48;4.55;;;5.60;91.20;;;;;;5109011;28;19926;-51
2021/04/28 05:03:44;;;;;;;;;;;6.80;90.30;;;;;;5109112;28;20039;-54
2021/04/28 05:06:11;;;;;;;11.43;5.50;;;7.20;84.00;;;;;;5108647;28;19968;-54
2021/04/28 05:08:37;;;;;;;7.28;4.03;;;8.00;83.70;;;;;;5108881;28;20058;-56
2021/04/28 05:11:02;;;;;;;;;;;8.90;80.00;;;;;;5101672;28;20479;-53
2021/04/28 05:13:28;;;;;;;10.38;4.70;;;9.20;77.40;;;;;;5108138;28;20442;-50
2021/04/28 05:15:53;;;;;;;;;;;9.90;73.50;;;;;;5109529;28;20177;-54
2021/04/28 05:18:19;;;;;;;11.70;4.97;;;10.00;71.50;;;;;;5108823;28;19971;-55
2021/04/28 05:20:45;;;;;;;;;;;9.30;75.40;;;;;;5108634;28;20447;-57
2021/04/28 05:23:10;;;;;;;8.50;4.03;;;9.40;75.60;;;;;;5054380;28;20379;-57
2021/04/28 05:25:36;;;;;;;;;;;10.10;74.90;;;;;;5077234;28;20166;-57
2021/04/28 05:28:02;;;;;;;6.80;3.85;;;9.80;73.90;;;;;;5066897;28;19924;-54
2021/04/28 05:30:28;;;;;;;8.27;4.57;;;9.60;73.90;;;;;;5070292;28;20044;-57
2021/04/28 05:32:55;;;;;;;;;;;10.10;72.40;;;;;;5085592;28;20453;-53
2021/04/28 05:35:22;;;;;;;7.72;4.35;;;10.40;72.00;;;;;;5072172;28;19974;-54
2021/04/28 05:37:48;;;;;;;8.57;4.97;;;11.30;69.40;;;;;;5069100;28;20124;-59
2021/04/28 05:40:13;;;;;;;;;;;11.60;67.90;;;;;;5077266;28;20115;-56
2021/04/28 05:42:39;;;;;;;11.45;4.70;;;12.40;65.00;;;;;;5087338;28;19924;-56
2021/04/28 05:45:08;;;;;;;13.05;4.57;;;13.60;62.10;;;;;;5085640;28;20059;-60
2021/04/28 05:47:35;;;;;;;9.95;4.70;;;13.70;59.10;;;;;;5061772;28;20049;-58
2021/04/28 05:50:01;;;;;;;22.65;4.93;;;12.80;61.60;;;;;;5047753;28;20036;-58
2021/04/28 05:52:27;;;;;;;10.80;4.22;;;12.70;64.10;;;;;;5047298;28;20041;-58
2021/04/28 05:54:53;;;;;;;;;;;13.10;62.90;;;;;;5047320;28;20048;-55
2021/04/28 05:57:19;;;;;;;9.23;4.07;;;12.70;62.30;;;;;;5054436;28;20301;-57
2021/04/28 05:59:45;;;;;;;11.02;4.38;;;12.10;62.00;;;;;;5054570;28;20083;-57
2021/04/28 06:02:11;;;;;;;;;;;11.10;66.30;;;;;;5074843;28;20067;-57
2021/04/28 06:04:37;;;;;;;11.38;4.00;;;11.20;69.00;;;;;;5075218;28;19924;-55
2021/04/28 06:07:03;;;;;;;;;;;11.00;69.40;;;;;;5077302;28;20115;-58
2021/04/28 06:09:29;;;;;;;9.02;4.35;;;11.20;70.60;;;;;;5083799;28;20571;-54
2021/04/28 06:11:55;;;;;;;;;;;12.20;68.30;;;;;;5087372;28;20040;-55
2021/04/28 06:14:20;;;;;;;;;;;13.80;64.20;;;;;;5087236;28;20379;-57
2021/04/28 06:16:46;;;;;;;;;;;14.70;60.80;;;;;;5071572;28;19927;-58
2021/04/28 06:19:13;;;;;;;;;;;14.50;56.90;;;;;;5061279;28;19928;-56
2021/04/28 06:21:38;;;;;;;;;;;14.10;60.20;;;;;;5067480;28;19923;-57
2021/04/28 06:24:05;;;;;;;;;;;13.20;62.60;;;;;;5066943;28;19920;-54
2021/04/28 06:26:30;;;;;;;;;;;12.80;67.70;;;;;;5066654;28;20427;-58
2021/04/28 06:28:56;;;;;;;;;;;13.50;64.20;;;;;;5067218;28;19924;-59
2021/04/28 06:31:21;;;;;;;;;;;14.30;61.60;;;;;;5067169;28;19947;-55
2021/04/28 06:33:51;;;;;;;;;;;15.10;60.30;;;;;;5066669;28;19923;-55
2021/04/28 06:36:16;;;;;;;;;;;15.60;57.70;;;;;;5064164;28;19912;-56
2021/04/28 06:38:42;;;;;;;;;;;16.00;54.90;;;;;;5066816;28;19948;-57
2021/04/28 06:41:07;;;;;;;;;;;16.50;54.40;;;;;;5066699;28;19923;-58
2021/04/28 06:43:34;;;;;;;;;;;16.70;54.60;;;;;;5055695;28;19921;-59
2021/04/28 06:45:59;;;;;;;;;;;16.30;53.00;;;;;;5064023;28;19920;-56
2021/04/28 06:48:25;;;;;;;;;;;16.60;53.70;;;;;;5087324;28;19916;-51
2021/04/28 06:50:51;;;;;;;;;;;16.90;53.30;;;;;;5087065;28;20337;-54
2021/04/28 06:53:17;;;;;;;;;;;16.60;52.30;;;;;;5087590;28;19912;-57
2021/04/28 06:55:42;;;;;;;;;;;16.10;53.60;;;;;;5086201;28;19945;-60
2021/04/28 06:58:08;;;;;;;;;;;16.10;53.60;;;;;;5083470;28;19963;-54
2021/04/28 07:00:33;;;;;;;;;;;16.30;52.60;;;;;;5086340;28;20304;-57
2021/04/28 07:02:59;;;;;;;;;;;16.80;53.50;;;;;;5085076;28;19939;-58
2021/04/28 07:05:25;;;;;;;;;;;17.30;53.70;;;;;;5087800;28;20611;-58
2021/04/28 07:07:50;;;;;;;;;;;17.20;51.50;;;;;;5087397;28;19998;-59
2021/04/28 07:10:16;;;;;;;;;;;16.90;53.20;;;;;;5086843;28;19969;-56
2021/04/28 07:12:42;;;;;;;;;;;16.80;52.30;;;;;;5087196;28;19959;-55
2021/04/28 07:15:08;;;;;;;;;;;16.80;52.80;;;;;;5071736;28;20314;-50
2021/04/28 07:17:34;;;;;;;;;;;16.50;50.20;;;;;;5064393;28;19958;-62
2021/04/28 07:20:00;;;;;;;;;;;16.50;51.70;;;;;;5059721;28;20300;-55
2021/04/28 07:22:26;;;;;;;;;;;16.00;51.20;;;;;;5056582;28;19927;-58
2021/04/28 07:24:53;;;;;;;;;;;15.60;52.50;;;;;;5066387;28;19920;-57
2021/04/28 07:27:19;;;;;;;;;;;15.40;53.20;;;;;;5070700;28;19961;-56
2021/04/28 07:29:44;;;;;;;;;;;15.40;55.50;;;;;;5071296;28;20125;-59
2021/04/28 07:32:10;;;;;;;;;;;15.30;53.00;;;;;;5070288;28;19917;-55
2021/04/28 07:34:35;;;;;;;;;;;15.60;51.30;;;;;;5071045;28;20006;-57
2021/04/28 07:37:02;;;;;;;;;;;16.40;48.70;;;;;;5058050;28;19920;-53
2021/04/28 07:39:27;;;;;;;;;;;17.20;45.50;;;;;;5050304;28;19964;-56
2021/04/28 07:41:53;;;;;;;;;;;18.20;42.50;;;;;;5051019;28;19975;-55
2021/04/28 07:44:18;;;;;;;;;;;18.40;39.80;;;;;;5050435;28;19924;-57
2021/04/28 07:46:44;;;;;;;;;;;17.90;39.00;;;;;;5073880;28;19916;-53
2021/04/28 07:49:09;;;;;;;;;;;17.80;41.30;;;;;;5090770;28;20284;-55
2021/04/28 07:51:36;;;;;;;;;;;17.50;41.20;;;;;;5091176;28;20383;-56
2021/04/28 07:54:02;;;;;;;;;;;17.90;41.70;;;;;;5090951;28;19928;-56
2021/04/28 07:56:27;;;;;;;;;;;18.70;36.40;;;;;;5090499;28;19916;-57
2021/04/28 07:58:53;;;;;;;;;;;20.10;34.60;;;;;;5081491;28;20467;-57
2021/04/28 08:01:19;;;;;;;;;;;21.00;33.60;;;;;;5069587;28;19920;-54
2021/04/28 08:03:44;;;;;;;;;;;22.50;31.20;;;;;;5070297;28;19970;-58
2021/04/28 08:06:10;;;;;;;;;;;22.60;28.00;;;;;;5069263;28;19920;-52
2021/04/28 08:08:35;;;;;;;;;;;23.00;28.90;;;;;;5069427;28;20602;-58
2021/04/28 08:11:01;;;;;;;;;;;23.40;28.70;;;;;;5070450;28;19917;-58
2021/04/28 08:13:26;;;;;;;;;;;23.50;27.80;;;;;;5070271;28;19967;-56
2021/04/28 08:15:52;;;;;;;;;;;23.90;27.90;;;;;;5074757;28;19924;-56
2021/04/28 08:18:18;;;;;;;;;;;24.10;26.10;;;;;;5070513;28;19927;-53
2021/04/28 08:20:45;;;;;;;;;;;23.90;25.60;;;;;;5070722;28;19916;-56
2021/04/28 08:23:10;;;;;;;;;;;24.60;27.60;;;;;;5069961;28;20065;-56
2021/04/28 08:25:36;;;;;;;;;;;25.00;25.50;;;;;;5069772;28;20007;-57
2021/04/28 08:28:02;;;;;;;;;;;24.30;26.60;;;;;;5064084;28;19999;-54
2021/04/28 08:30:27;;;;;;;;;;;24.00;27.50;;;;;;5068983;28;20401;-56
2021/04/28 08:32:53;;;;;;;;;;;25.00;28.00;;;;;;5069642;28;19916;-55
2021/04/28 08:35:19;;;;;;;;;;;25.80;25.00;;;;;;5068887;28;19920;-54
2021/04/28 08:37:45;;;;;;;;;;;24.90;24.40;;;;;;5069608;28;19916;-59
2021/04/28 08:40:12;;;;;;;;;;;24.70;23.70;;;;;;5069763;28;19920;-54
2021/04/28 08:42:37;;;;;;;;;;;24.30;26.60;;;;;;5069697;28;19920;-57
2021/04/28 08:45:03;;;;;;;;;;;23.70;27.50;;;;;;5068177;28;19924;-54
2021/04/28 08:47:28;;;;;;;;;;;22.20;27.10;;;;;;5069049;28;19927;-55
2021/04/28 08:49:54;;;;;;;;;;;20.50;30.10;;;;;;5068952;28;19927;-54
2021/04/28 08:52:20;;;;;;;;;;;19.30;30.00;;;;;;5069526;28;20396;-54
2021/04/28 08:54:46;;;;;;;;;;;18.00;33.00;;;;;;5069481;28;19924;-56
2021/04/28 08:57:12;;;;;;;;;;;17.60;34.60;;;;;;5065265;28;19927;-57
2021/04/28 08:59:38;;;;;;;;;;;17.70;35.90;;;;;;5062237;28;20292;-54
2021/04/28 09:02:20;;;;;;;;;;;17.80;37.00;;;;;;5068376;28;20547;-57
2021/04/28 09:05:07;;;;;;;;;;;17.80;37.70;;;;;;5067693;28;19924;-50
2021/04/28 09:07:33;;;;;;;;;;;17.50;39.20;;;;;;5059874;28;19923;-56
2021/04/28 09:10:04;;;;;;;;;;;17.30;35.00;;;;;;5067153;28;19916;-53
2021/04/28 09:12:29;;;;;;;;;;;17.20;36.50;;;;;;5069140;28;20353;-56
2021/04/28 09:14:55;;;;;;;;;;;17.10;35.30;;;;;;5068896;28;19924;-55
2021/04/28 09:17:21;;;;;;;;;;;17.00;39.20;;;;;;5068355;28;19928;-57
2021/04/28 09:19:56;;;;;;;;;;;17.10;39.30;;;;;;5069752;28;20272;-53
2021/04/28 09:22:23;;;;;;;;;;;17.10;40.00;;;;;;5068886;28;20284;-56
2021/04/28 09:24:50;;;;;;;;;;;17.20;39.00;;;;;;5068339;28;19955;-52
2021/04/28 09:27:25;;;;;;;;;;;17.00;39.20;;;;;;5068922;28;20140;-54
2021/04/28 09:29:53;;;;;;;;;;;17.00;37.80;;;;;;5069525;28;20521;-57
2021/04/28 09:32:18;;;;;;;;;;;16.90;36.00;;;;;;5068109;28;19916;-52
2021/04/28 09:34:44;;;;;;;;;;;16.90;35.90;;;;;;5069747;28;19923;-55
2021/04/28 09:37:13;;;;;;;;;;;16.70;35.50;;;;;;5068299;28;20366;-53
2021/04/28 09:39:59;;;;;;;;;;;16.80;37.90;;;;;;5068195;28;19916;-52
2021/04/28 09:42:24;;;;;;;;;;;17.00;36.60;;;;;;5068453;28;19924;-52
2021/04/28 09:44:50;;;;;;;;;;;17.00;37.90;;;;;;5066785;28;19943;-55
2021/04/28 09:47:16;;;;;;;;;;;17.10;39.00;;;;;;5083014;28;20597;-56
2021/04/28 09:49:43;;;;;;;;;;;17.10;35.40;;;;;;5088063;28;19922;-57
2021/04/28 09:52:09;;;;;;;;;;;16.90;35.40;;;;;;5087497;28;20026;-55
2021/04/28 09:54:34;;;;;;;;;;;16.80;34.70;;;;;;5085362;28;20003;-59
2021/04/28 09:57:00;;;;;;;;;;;16.50;34.00;;;;;;5077507;28;20538;-50
2021/04/28 09:59:44;;;;;;;;;;;16.60;35.40;;;;;;5083127;28;19923;-54
2021/04/28 10:02:29;;;;;;;;;;;16.90;38.20;;;;;;5086421;28;19915;-57
2021/04/28 10:05:13;;;;;;;;;;;16.90;38.10;;;;;;5082929;28;19992;-51
2021/04/28 10:07:39;;;;;;;;;;;16.80;36.40;;;;;;5086932;28;20000;-58
2021/04/28 10:10:04;;;;;;;;;;;16.80;37.40;;;;;;5084256;28;19920;-56
2021/04/28 10:12:30;;;;;;;;;;;17.00;39.10;;;;;;5087196;28;19963;-54
2021/04/28 10:14:55;;;;;;;;;;;17.10;38.10;;;;;;5086601;28;20566;-50
2021/04/28 10:17:21;;;;;;;;;;;17.30;37.70;;;;;;5086351;28;19964;-56
2021/04/28 10:19:47;;;;;;;;;;;17.30;35.70;;;;;;5088769;28;19987;-58
2021/04/28 10:22:20;;;;;;;;;;;17.20;35.90;;;;;;5088027;28;19916;-56
2021/04/28 10:24:49;;;;;;;;;;;17.00;37.70;;;;;;5087683;28;19920;-59
2021/04/28 10:27:17;;;;;;;;;;;17.20;41.80;;;;;;5087867;28;19923;-57
2021/04/28 10:29:43;;;;;;;;;;;17.30;40.40;;;;;;5088259;28;19927;-53
2021/04/28 10:32:11;;;;;;;;;;;17.30;40.20;;;;;;5087496;28;19916;-55
2021/04/28 10:34:46;;;;;;;;;;;17.40;38.50;;;;;;5087213;28;19916;-55
2021/04/28 10:37:12;;;;;;;;;;;17.50;39.00;;;;;;5088275;28;19916;-57
2021/04/28 10:39:37;;;;;;;;;;;17.30;36.80;;;;;;5087673;28;20295;-55
2021/04/28 10:42:05;;;;;;;;;;;17.50;39.70;;;;;;5087983;28;19927;-53
2021/04/28 10:44:31;;;;;;;;;;;17.30;37.90;;;;;;5087788;28;20081;-56
2021/04/28 10:47:14;;;;;;;;;;;17.20;37.70;;;;;;5074948;28;20354;-58
2021/04/28 10:49:58;;;;;;;;;;;16.90;41.30;;;;;;5066245;28;20379;-55
2021/04/28 10:52:27;;;;;;;;;;;17.10;43.00;;;;;;5067058;28;20328;-58
2021/04/28 10:54:53;;;;;;;;;;;17.00;37.80;;;;;;5064299;28;19920;-58
2021/04/28 10:57:31;;;;;;;;;;;17.10;40.40;;;;;;5079717;28;19916;-52
2021/04/28 10:59:57;;;;;;;;;;;17.10;38.00;;;;;;5087034;28;19920;-58
2021/04/28 11:02:29;;;;;;;;;;;17.10;41.80;;;;;;5086288;28;19965;-58
2021/04/28 11:05:01;;;;;;;;;;;17.30;40.50;;;;;;5085685;28;19927;-55
2021/04/28 11:07:42;;;;;;;;;;;17.30;39.00;;;;;;5087516;28;20003;-58
2021/04/28 11:10:26;;;;;;;;;;;17.40;40.80;;;;;;5087290;28;20006;-52
2021/04/28 11:13:08;;;;;;;;;;;17.50;41.40;;;;;;5087138;28;19916;-58
2021/04/28 11:15:51;;;;;;;;;;;17.20;39.00;;;;;;5068965;28;19967;-58
2021/04/28 11:18:43;;;;;;;;;;;17.20;38.90;;;;;;5072133;28;20404;-58
2021/04/28 11:21:18;;;;;;;;;;;17.30;39.10;;;;;;5062705;28;19920;-55
2021/04/28 11:24:02;;;;;;;;;;;17.10;39.20;;;;;;5067022;28;19973;-58
2021/04/28 11:26:29;;;;;;;;;;;17.20;40.10;;;;;;5086743;28;19916;-57
2021/04/28 11:28:56;;;;;;;;;;;17.00;39.00;;;;;;5086305;28;19920;-56
2021/04/28 11:31:42;;;;;;;;;;;17.10;40.30;;;;;;5085612;28;19931;-58
2021/04/28 11:34:17;;;;;;;;;;;17.00;40.70;;;;;;5087339;28;19920;-57
2021/04/28 11:36:52;;;;;;;;;;;17.10;39.80;;;;;;5086619;28;19972;-59
2021/04/28 11:39:32;;;;;;;;;;;17.20;39.60;;;;;;5086989;28;19939;-59
2021/04/28 11:42:08;;;;;;;;;;;17.10;38.60;;;;;;5087212;28;20233;-58
2021/04/28 11:44:35;;;;;;;;;;;17.00;39.10;;;;;;5084641;28;19966;-59
2021/04/28 11:47:08;;;;;;;;;;;17.20;41.10;;;;;;5074489;28;19916;-56
2021/04/28 11:49:34;;;;;;;;;;;17.30;39.00;;;;;;5067019;28;19920;-59
2021/04/28 11:51:59;;;;;;;;;;;17.30;40.10;;;;;;5064531;28;19966;-56
2021/04/28 11:54:25;;;;;;;;;;;17.50;41.10;;;;;;5073422;28;19967;-58
2021/04/28 11:56:50;;;;;;;;;;;17.50;43.20;;;;;;5069395;28;19920;-59
2021/04/28 11:59:20;;;;;;;;;;;17.20;38.90;;;;;;5066922;28;19920;-58
2021/04/28 12:01:46;;;;;;;;;;;16.90;39.10;;;;;;5065900;28;20387;-55
2021/04/28 12:04:12;;;;;;;;;;;17.10;40.50;;;;;;5066497;28;19960;-58
2021/04/28 12:06:39;;;;;;;;;;;17.20;40.50;;;;;;5067043;28;19974;-55
2021/04/28 12:09:09;;;;;;;;;;;17.10;39.60;;;;;;5065233;28;19962;-57
2021/04/28 12:11:35;;;;;;;;;;;17.30;44.30;;;;;;5069375;28;19916;-59
2021/04/28 12:14:01;;;;;;;;;;;17.30;40.40;;;;;;5070082;28;19916;-58
2021/04/28 12:16:26;;;;;;;;;;;17.30;41.80;;;;;;5071324;28;19995;-57
2021/04/28 12:19:05;;;;;;;;;;;17.40;41.70;;;;;;5088738;28;19916;-58
2021/04/28 12:21:30;;;;;;;;;;;17.40;39.50;;;;;;5089464;28;20372;-57
2021/04/28 12:24:02;;;;;;;;;;;17.00;42.20;;;;;;5087421;28;19930;-58
2021/04/28 12:26:27;;;;;;;;;;;16.70;42.50;;;;;;5069115;28;20015;-56
2021/04/28 12:28:53;;;;;;;;;;;16.90;42.70;;;;;;5069327;28;20042;-59
2021/04/28 12:31:38;;;;;;;;;;;17.00;41.60;;;;;;5068434;28;20012;-60
2021/04/28 12:34:04;;;;;;;;;;;17.20;43.90;;;;;;5069160;28;20284;-58
2021/04/28 12:36:29;;;;;;;;;;;17.50;44.80;;;;;;5070163;28;19923;-57
2021/04/28 12:38:54;;;;;;;;;;;17.60;44.60;;;;;;5069400;28;20304;-58
2021/04/28 12:41:20;;;;;;;;;;;17.60;43.60;;;;;;5067467;28;19917;-55
2021/04/28 12:43:45;;;;;;;;;;;17.40;42.70;;;;;;5069698;28;20387;-57
2021/04/28 12:46:13;;;;;;;;;;;17.40;43.40;;;;;;5077108;28;20449;-51
2021/04/28 12:48:54;;;;;;;;;;;17.20;43.90;;;;;;5087238;28;20011;-56
2021/04/28 12:51:20;;;;;;;;;;;17.10;42.60;;;;;;5090116;28;20359;-56
2021/04/28 12:53:45;;;;;;;;;;;17.20;42.40;;;;;;5088180;28;19965;-56
2021/04/28 12:56:11;;;;;;;;;;;17.20;44.50;;;;;;5071305;28;19916;-56
2021/04/28 12:58:47;;;;;;;;;;;17.30;41.10;;;;;;5069573;28;19920;-56
2021/04/28 13:01:16;;;;;;;;;;;17.40;43.10;;;;;;5069619;28;19928;-53
2021/04/28 13:03:42;;;;;;;;;;;17.60;44.90;;;;;;5068892;28;19981;-52
2021/04/28 13:06:09;;;;;;;;;;;17.60;41.70;;;;;;5069395;28;20376;-56
2021/04/28 13:08:41;;;;;;;;;;;17.50;43.20;;;;;;5073868;28;19962;-54
2021/04/28 13:11:06;;;;;;;;;;;17.40;41.40;;;;;;5076676;28;19920;-57
2021/04/28 13:13:41;;;;;;;;;;;16.90;43.20;;;;;;5068562;28;19942;-56
2021/04/28 13:16:26;;;;;;;;;;;17.10;47.10;;;;;;5076675;28;19964;-53
2021/04/28 13:18:52;;;;;;;;;;;17.30;42.70;;;;;;5087849;28;19942;-52
2021/04/28 13:21:31;;;;;;;;;;;17.60;44.00;;;;;;5089557;28;19928;-53
2021/04/28 13:24:00;;;;;;;;;;;17.90;44.80;;;;;;5086130;28;19924;-57
2021/04/28 13:26:26;;;;;;;;;;;17.90;43.80;;;;;;5067927;28;19924;-57
2021/04/28 13:28:58;;;;;;;;;;;17.90;45.60;;;;;;5068236;28;19970;-55
2021/04/28 13:31:25;;;;;;;;;;;17.70;43.00;;;;;;5067874;28;20376;-55
2021/04/28 13:33:52;;;;;;;;;;;17.60;42.20;;;;;;5067997;28;19917;-55
2021/04/28 13:36:19;;;;;;;;;;;17.20;44.80;;;;;;5067604;28;20265;-58
2021/04/28 13:38:48;;;;;;;;;;;17.20;44.10;;;;;;5068892;28;19916;-59
2021/04/28 13:41:14;;;;;;;;;;;17.10;44.90;;;;;;5068582;28;20431;-58